sensor_id;sensor_type;location;lat;lon;timestamp;P1;durP1;ratioP1;P2;durP2;ratioP2
19810;SDS011;10065;49.632;8.346;2023-02-11T00:01:12;45.73;;;20.80;;
19810;SDS011;10065;49.632;8.346;2023-02-11T00:03:45;46.23;;;21.90;;
19810;SDS011;10065;49.632;8.346;2023-02-11T00:06:13;40.20;;;20.20;;
19810;SDS011;10065;49.632;8.346;2023-02-11T00:08:41;43.63;;;20.70;;
19810;SDS011;10065;49.632;8.346;2023-02-11T00:11:11;45.00;;;20.83;;
19810;SDS011;10065;49.632;8.346;2023-02-11T00:13:41;38.97;;;19.63;;
19810;SDS011;10065;49.632;8.346;2023-02-11T00:16:10;42.00;;;20.27;;
19810;SDS011;10065;49.632;8.346;2023-02-11T00:18:39;38.93;;;18.90;;
19810;SDS011;10065;49.632;8.346;2023-02-11T00:21:07;37.80;;;19.47;;
19810;SDS011;10065;49.632;8.346;2023-02-11T00:23:35;39.83;;;18.87;;
19810;SDS011;10065;49.632;8.346;2023-02-11T00:26:03;41.90;;;19.43;;
19810;SDS011;10065;49.632;8.346;2023-02-11T00:28:38;39.43;;;18.47;;
19810;SDS011;10065;49.632;8.346;2023-02-11T00:31:06;41.07;;;19.93;;
19810;SDS011;10065;49.632;8.346;2023-02-11T00:33:34;37.13;;;18.80;;
19810;SDS011;10065;49.632;8.346;2023-02-11T00:36:03;38.73;;;18.60;;
19810;SDS011;10065;49.632;8.346;2023-02-11T00:38:31;38.10;;;18.47;;
19810;SDS011;10065;49.632;8.346;2023-02-11T00:40:58;32.43;;;16.70;;
19810;SDS011;10065;49.632;8.346;2023-02-11T00:43:26;39.20;;;17.30;;
19810;SDS011;10065;49.632;8.346;2023-02-11T00:45:55;35.93;;;18.00;;
19810;SDS011;10065;49.632;8.346;2023-02-11T00:48:23;33.77;;;16.57;;
19810;SDS011;10065;49.632;8.346;2023-02-11T00:50:51;34.67;;;17.40;;
19810;SDS011;10065;49.632;8.346;2023-02-11T00:53:18;32.83;;;17.40;;
19810;SDS011;10065;49.632;8.346;2023-02-11T00:55:46;31.53;;;16.07;;
19810;SDS011;10065;49.632;8.346;2023-02-11T00:58:14;28.83;;;15.07;;
19810;SDS011;10065;49.632;8.346;2023-02-11T01:00:42;31.07;;;16.63;;
19810;SDS011;10065;49.632;8.346;2023-02-11T01:03:11;36.70;;;16.93;;
19810;SDS011;10065;49.632;8.346;2023-02-11T01:05:38;33.27;;;17.37;;
19810;SDS011;10065;49.632;8.346;2023-02-11T01:08:06;34.03;;;16.40;;
19810;SDS011;10065;49.632;8.346;2023-02-11T01:10:34;36.50;;;17.43;;
19810;SDS011;10065;49.632;8.346;2023-02-11T01:13:02;35.13;;;16.87;;
19810;SDS011;10065;49.632;8.346;2023-02-11T01:15:29;37.67;;;18.07;;
19810;SDS011;10065;49.632;8.346;2023-02-11T01:17:57;35.20;;;16.50;;
19810;SDS011;10065;49.632;8.346;2023-02-11T01:20:27;35.57;;;16.47;;
19810;SDS011;10065;49.632;8.346;2023-02-11T01:22:55;36.97;;;16.93;;
19810;SDS011;10065;49.632;8.346;2023-02-11T01:25:23;30.43;;;16.57;;
19810;SDS011;10065;49.632;8.346;2023-02-11T01:27:51;36.43;;;16.80;;
19810;SDS011;10065;49.632;8.346;2023-02-11T01:30:18;36.50;;;16.03;;
19810;SDS011;10065;49.632;8.346;2023-02-11T01:32:46;32.23;;;15.03;;
19810;SDS011;10065;49.632;8.346;2023-02-11T01:35:14;26.73;;;14.80;;
19810;SDS011;10065;49.632;8.346;2023-02-11T01:37:43;34.83;;;16.17;;
19810;SDS011;10065;49.632;8.346;2023-02-11T01:40:13;34.63;;;16.17;;
19810;SDS011;10065;49.632;8.346;2023-02-11T01:42:43;32.27;;;16.40;;
19810;SDS011;10065;49.632;8.346;2023-02-11T01:48:16;30.97;;;15.27;;
19810;SDS011;10065;49.632;8.346;2023-02-11T01:50:49;35.00;;;17.43;;
19810;SDS011;10065;49.632;8.346;2023-02-11T01:53:21;31.90;;;16.40;;
19810;SDS011;10065;49.632;8.346;2023-02-11T01:56:07;31.83;;;16.30;;
19810;SDS011;10065;49.632;8.346;2023-02-11T01:58:52;34.67;;;16.60;;
19810;SDS011;10065;49.632;8.346;2023-02-11T02:01:25;35.90;;;16.83;;
19810;SDS011;10065;49.632;8.346;2023-02-11T02:03:55;34.97;;;16.23;;
19810;SDS011;10065;49.632;8.346;2023-02-11T02:06:29;36.37;;;17.47;;
19810;SDS011;10065;49.632;8.346;2023-02-11T02:09:03;35.63;;;17.43;;
19810;SDS011;10065;49.632;8.346;2023-02-11T02:11:34;38.03;;;17.57;;
19810;SDS011;10065;49.632;8.346;2023-02-11T02:14:02;35.50;;;16.47;;
19810;SDS011;10065;49.632;8.346;2023-02-11T02:16:30;37.03;;;18.60;;
19810;SDS011;10065;49.632;8.346;2023-02-11T02:19:05;38.63;;;17.30;;
19810;SDS011;10065;49.632;8.346;2023-02-11T02:25:14;39.13;;;18.30;;
19810;SDS011;10065;49.632;8.346;2023-02-11T02:27:52;37.80;;;17.27;;
19810;SDS011;10065;49.632;8.346;2023-02-11T02:33:31;39.23;;;17.73;;
19810;SDS011;10065;49.632;8.346;2023-02-11T02:36:08;35.90;;;18.57;;
19810;SDS011;10065;49.632;8.346;2023-02-11T02:38:43;36.93;;;17.57;;
19810;SDS011;10065;49.632;8.346;2023-02-11T02:41:18;33.80;;;17.30;;
19810;SDS011;10065;49.632;8.346;2023-02-11T02:43:49;34.80;;;17.23;;
19810;SDS011;10065;49.632;8.346;2023-02-11T02:46:20;36.10;;;17.13;;
19810;SDS011;10065;49.632;8.346;2023-02-11T02:48:51;38.07;;;17.50;;
19810;SDS011;10065;49.632;8.346;2023-02-11T02:51:32;32.80;;;15.97;;
19810;SDS011;10065;49.632;8.346;2023-02-11T02:54:36;37.47;;;17.03;;
19810;SDS011;10065;49.632;8.346;2023-02-11T02:57:31;43.37;;;17.60;;
19810;SDS011;10065;49.632;8.346;2023-02-11T03:00:09;35.27;;;17.57;;
19810;SDS011;10065;49.632;8.346;2023-02-11T03:02:54;37.80;;;16.97;;
19810;SDS011;10065;49.632;8.346;2023-02-11T03:05:35;36.77;;;15.97;;
19810;SDS011;10065;49.632;8.346;2023-02-11T03:08:15;33.47;;;17.20;;
19810;SDS011;10065;49.632;8.346;2023-02-11T03:10:48;36.67;;;16.77;;
19810;SDS011;10065;49.632;8.346;2023-02-11T03:13:23;33.93;;;16.70;;
19810;SDS011;10065;49.632;8.346;2023-02-11T03:15:57;37.80;;;16.87;;
19810;SDS011;10065;49.632;8.346;2023-02-11T03:18:27;38.50;;;17.67;;
19810;SDS011;10065;49.632;8.346;2023-02-11T03:20:58;36.17;;;17.40;;
19810;SDS011;10065;49.632;8.346;2023-02-11T03:23:29;35.90;;;17.57;;
19810;SDS011;10065;49.632;8.346;2023-02-11T03:26:03;34.77;;;16.47;;
19810;SDS011;10065;49.632;8.346;2023-02-11T03:28:38;35.67;;;16.30;;
19810;SDS011;10065;49.632;8.346;2023-02-11T03:31:13;35.77;;;17.90;;
19810;SDS011;10065;49.632;8.346;2023-02-11T03:33:49;38.50;;;18.37;;
19810;SDS011;10065;49.632;8.346;2023-02-11T03:36:26;37.93;;;17.93;;
19810;SDS011;10065;49.632;8.346;2023-02-11T03:38:59;38.67;;;18.40;;
19810;SDS011;10065;49.632;8.346;2023-02-11T03:41:29;36.03;;;17.27;;
19810;SDS011;10065;49.632;8.346;2023-02-11T03:43:57;39.90;;;18.13;;
19810;SDS011;10065;49.632;8.346;2023-02-11T03:46:27;43.23;;;18.07;;
19810;SDS011;10065;49.632;8.346;2023-02-11T03:48:58;42.80;;;17.53;;
19810;SDS011;10065;49.632;8.346;2023-02-11T03:51:31;35.50;;;16.73;;
19810;SDS011;10065;49.632;8.346;2023-02-11T03:54:01;32.90;;;16.70;;
19810;SDS011;10065;49.632;8.346;2023-02-11T03:56:33;38.57;;;17.70;;
19810;SDS011;10065;49.632;8.346;2023-02-11T03:59:06;39.37;;;18.23;;
19810;SDS011;10065;49.632;8.346;2023-02-11T04:01:34;37.47;;;17.60;;
19810;SDS011;10065;49.632;8.346;2023-02-11T04:04:01;37.77;;;18.03;;
19810;SDS011;10065;49.632;8.346;2023-02-11T04:06:29;38.43;;;17.53;;
19810;SDS011;10065;49.632;8.346;2023-02-11T04:08:58;38.23;;;18.27;;
19810;SDS011;10065;49.632;8.346;2023-02-11T04:11:26;36.87;;;17.87;;
19810;SDS011;10065;49.632;8.346;2023-02-11T04:13:54;31.43;;;16.23;;
19810;SDS011;10065;49.632;8.346;2023-02-11T04:16:21;41.03;;;17.60;;
19810;SDS011;10065;49.632;8.346;2023-02-11T04:18:49;36.60;;;17.33;;
19810;SDS011;10065;49.632;8.346;2023-02-11T04:21:17;38.60;;;16.77;;
19810;SDS011;10065;49.632;8.346;2023-02-11T04:23:44;40.23;;;18.60;;
19810;SDS011;10065;49.632;8.346;2023-02-11T04:26:13;39.77;;;17.57;;
19810;SDS011;10065;49.632;8.346;2023-02-11T04:28:41;41.40;;;17.50;;
19810;SDS011;10065;49.632;8.346;2023-02-11T04:31:09;35.10;;;17.10;;
19810;SDS011;10065;49.632;8.346;2023-02-11T04:33:38;35.47;;;16.93;;
19810;SDS011;10065;49.632;8.346;2023-02-11T04:36:05;34.87;;;16.70;;
19810;SDS011;10065;49.632;8.346;2023-02-11T04:38:34;41.57;;;18.17;;
19810;SDS011;10065;49.632;8.346;2023-02-11T04:41:01;36.70;;;17.17;;
19810;SDS011;10065;49.632;8.346;2023-02-11T04:43:30;37.47;;;18.23;;
19810;SDS011;10065;49.632;8.346;2023-02-11T04:45:58;35.03;;;18.13;;
19810;SDS011;10065;49.632;8.346;2023-02-11T04:48:26;32.43;;;16.33;;
19810;SDS011;10065;49.632;8.346;2023-02-11T04:50:53;41.53;;;17.47;;
19810;SDS011;10065;49.632;8.346;2023-02-11T04:53:21;32.50;;;16.43;;
19810;SDS011;10065;49.632;8.346;2023-02-11T04:55:49;35.27;;;15.93;;
19810;SDS011;10065;49.632;8.346;2023-02-11T04:58:18;41.17;;;17.73;;
19810;SDS011;10065;49.632;8.346;2023-02-11T05:00:47;32.17;;;16.07;;
19810;SDS011;10065;49.632;8.346;2023-02-11T05:03:15;32.57;;;16.50;;
19810;SDS011;10065;49.632;8.346;2023-02-11T05:05:43;37.73;;;17.47;;
19810;SDS011;10065;49.632;8.346;2023-02-11T05:08:11;35.67;;;17.40;;
19810;SDS011;10065;49.632;8.346;2023-02-11T05:10:39;34.63;;;16.70;;
19810;SDS011;10065;49.632;8.346;2023-02-11T05:13:06;36.53;;;16.47;;
19810;SDS011;10065;49.632;8.346;2023-02-11T05:15:34;29.73;;;15.13;;
19810;SDS011;10065;49.632;8.346;2023-02-11T05:18:03;32.70;;;15.03;;
19810;SDS011;10065;49.632;8.346;2023-02-11T05:20:31;35.13;;;16.27;;
19810;SDS011;10065;49.632;8.346;2023-02-11T05:22:59;34.33;;;16.23;;
19810;SDS011;10065;49.632;8.346;2023-02-11T05:25:26;27.17;;;13.40;;
19810;SDS011;10065;49.632;8.346;2023-02-11T05:27:54;32.90;;;15.07;;
19810;SDS011;10065;49.632;8.346;2023-02-11T05:30:22;27.20;;;14.17;;
19810;SDS011;10065;49.632;8.346;2023-02-11T05:32:49;30.03;;;14.23;;
19810;SDS011;10065;49.632;8.346;2023-02-11T05:35:19;30.27;;;14.37;;
19810;SDS011;10065;49.632;8.346;2023-02-11T05:37:47;33.47;;;14.30;;
19810;SDS011;10065;49.632;8.346;2023-02-11T05:40:15;29.07;;;14.27;;
19810;SDS011;10065;49.632;8.346;2023-02-11T05:42:42;31.57;;;16.03;;
19810;SDS011;10065;49.632;8.346;2023-02-11T05:45:10;28.93;;;14.37;;
19810;SDS011;10065;49.632;8.346;2023-02-11T05:47:38;34.53;;;16.47;;
19810;SDS011;10065;49.632;8.346;2023-02-11T05:50:06;36.60;;;15.80;;
19810;SDS011;10065;49.632;8.346;2023-02-11T05:52:35;37.10;;;16.33;;
19810;SDS011;10065;49.632;8.346;2023-02-11T05:55:03;30.63;;;14.87;;
19810;SDS011;10065;49.632;8.346;2023-02-11T05:57:31;36.20;;;17.53;;
19810;SDS011;10065;49.632;8.346;2023-02-11T05:59:59;35.00;;;16.73;;
19810;SDS011;10065;49.632;8.346;2023-02-11T06:02:27;37.30;;;18.17;;
19810;SDS011;10065;49.632;8.346;2023-02-11T06:04:54;36.60;;;17.47;;
19810;SDS011;10065;49.632;8.346;2023-02-11T06:07:22;37.50;;;17.23;;
19810;SDS011;10065;49.632;8.346;2023-02-11T06:09:51;38.20;;;17.67;;
19810;SDS011;10065;49.632;8.346;2023-02-11T06:12:19;36.63;;;17.87;;
19810;SDS011;10065;49.632;8.346;2023-02-11T06:14:46;35.33;;;15.80;;
19810;SDS011;10065;49.632;8.346;2023-02-11T06:17:16;39.70;;;18.33;;
19810;SDS011;10065;49.632;8.346;2023-02-11T06:19:44;35.53;;;16.17;;
19810;SDS011;10065;49.632;8.346;2023-02-11T06:22:12;39.37;;;16.43;;
19810;SDS011;10065;49.632;8.346;2023-02-11T06:24:40;34.80;;;16.73;;
19810;SDS011;10065;49.632;8.346;2023-02-11T06:27:28;35.57;;;16.57;;
19810;SDS011;10065;49.632;8.346;2023-02-11T06:29:56;35.23;;;16.23;;
19810;SDS011;10065;49.632;8.346;2023-02-11T06:32:25;34.27;;;15.90;;
19810;SDS011;10065;49.632;8.346;2023-02-11T06:35:10;34.77;;;16.87;;
19810;SDS011;10065;49.632;8.346;2023-02-11T06:37:39;29.60;;;15.43;;
19810;SDS011;10065;49.632;8.346;2023-02-11T06:40:08;35.20;;;16.80;;
19810;SDS011;10065;49.632;8.346;2023-02-11T06:42:37;35.60;;;16.43;;
19810;SDS011;10065;49.632;8.346;2023-02-11T06:45:05;36.97;;;17.90;;
19810;SDS011;10065;49.632;8.346;2023-02-11T06:47:34;35.87;;;16.67;;
19810;SDS011;10065;49.632;8.346;2023-02-11T06:50:02;37.20;;;18.10;;
19810;SDS011;10065;49.632;8.346;2023-02-11T06:52:31;39.40;;;18.67;;
19810;SDS011;10065;49.632;8.346;2023-02-11T06:54:59;38.90;;;17.17;;
19810;SDS011;10065;49.632;8.346;2023-02-11T06:57:28;37.87;;;17.73;;
19810;SDS011;10065;49.632;8.346;2023-02-11T06:59:57;37.30;;;18.43;;
19810;SDS011;10065;49.632;8.346;2023-02-11T07:02:25;40.30;;;18.63;;
19810;SDS011;10065;49.632;8.346;2023-02-11T07:04:53;41.20;;;18.67;;
19810;SDS011;10065;49.632;8.346;2023-02-11T07:07:21;39.60;;;17.97;;
19810;SDS011;10065;49.632;8.346;2023-02-11T07:09:48;36.93;;;17.37;;
19810;SDS011;10065;49.632;8.346;2023-02-11T07:12:16;42.97;;;19.43;;
19810;SDS011;10065;49.632;8.346;2023-02-11T07:14:44;38.10;;;19.10;;
19810;SDS011;10065;49.632;8.346;2023-02-11T07:17:13;42.43;;;19.77;;
19810;SDS011;10065;49.632;8.346;2023-02-11T07:19:41;41.50;;;19.90;;
19810;SDS011;10065;49.632;8.346;2023-02-11T07:22:08;37.57;;;18.33;;
19810;SDS011;10065;49.632;8.346;2023-02-11T07:24:36;41.43;;;18.47;;
19810;SDS011;10065;49.632;8.346;2023-02-11T07:27:04;32.17;;;17.13;;
19810;SDS011;10065;49.632;8.346;2023-02-11T07:29:32;35.23;;;18.00;;
19810;SDS011;10065;49.632;8.346;2023-02-11T07:31:59;39.20;;;18.90;;
19810;SDS011;10065;49.632;8.346;2023-02-11T07:34:28;40.03;;;18.87;;
19810;SDS011;10065;49.632;8.346;2023-02-11T07:36:56;41.10;;;18.73;;
19810;SDS011;10065;49.632;8.346;2023-02-11T07:39:24;40.40;;;19.67;;
19810;SDS011;10065;49.632;8.346;2023-02-11T07:41:52;35.93;;;17.90;;
19810;SDS011;10065;49.632;8.346;2023-02-11T07:44:20;38.67;;;17.60;;
19810;SDS011;10065;49.632;8.346;2023-02-11T07:46:48;34.00;;;17.53;;
19810;SDS011;10065;49.632;8.346;2023-02-11T07:49:16;38.90;;;19.03;;
19810;SDS011;10065;49.632;8.346;2023-02-11T07:51:45;38.73;;;18.83;;
19810;SDS011;10065;49.632;8.346;2023-02-11T07:54:15;37.80;;;17.70;;
19810;SDS011;10065;49.632;8.346;2023-02-11T07:56:43;32.90;;;17.60;;
19810;SDS011;10065;49.632;8.346;2023-02-11T07:59:11;36.13;;;18.50;;
19810;SDS011;10065;49.632;8.346;2023-02-11T08:01:38;34.23;;;17.37;;
19810;SDS011;10065;49.632;8.346;2023-02-11T08:04:06;34.93;;;18.30;;
19810;SDS011;10065;49.632;8.346;2023-02-11T08:06:34;37.43;;;18.90;;
19810;SDS011;10065;49.632;8.346;2023-02-11T08:09:09;36.60;;;18.63;;
19810;SDS011;10065;49.632;8.346;2023-02-11T08:11:40;36.30;;;17.90;;
19810;SDS011;10065;49.632;8.346;2023-02-11T08:14:09;33.73;;;17.80;;
19810;SDS011;10065;49.632;8.346;2023-02-11T08:16:37;35.73;;;17.57;;
19810;SDS011;10065;49.632;8.346;2023-02-11T08:19:05;35.53;;;17.60;;
19810;SDS011;10065;49.632;8.346;2023-02-11T08:21:34;34.10;;;18.07;;
19810;SDS011;10065;49.632;8.346;2023-02-11T08:24:02;33.77;;;17.93;;
19810;SDS011;10065;49.632;8.346;2023-02-11T08:26:31;33.70;;;17.60;;
19810;SDS011;10065;49.632;8.346;2023-02-11T08:29:01;33.20;;;17.53;;
19810;SDS011;10065;49.632;8.346;2023-02-11T08:31:33;35.57;;;18.03;;
19810;SDS011;10065;49.632;8.346;2023-02-11T08:34:02;41.47;;;19.17;;
19810;SDS011;10065;49.632;8.346;2023-02-11T08:36:31;37.23;;;19.77;;
19810;SDS011;10065;49.632;8.346;2023-02-11T08:39:02;34.53;;;19.07;;
19810;SDS011;10065;49.632;8.346;2023-02-11T08:41:49;38.90;;;18.37;;
19810;SDS011;10065;49.632;8.346;2023-02-11T08:44:19;34.77;;;19.20;;
19810;SDS011;10065;49.632;8.346;2023-02-11T08:46:47;37.13;;;18.83;;
19810;SDS011;10065;49.632;8.346;2023-02-11T08:49:16;38.67;;;19.43;;
19810;SDS011;10065;49.632;8.346;2023-02-11T08:51:44;35.67;;;18.37;;
19810;SDS011;10065;49.632;8.346;2023-02-11T08:54:12;39.07;;;18.80;;
19810;SDS011;10065;49.632;8.346;2023-02-11T08:56:41;35.00;;;19.07;;
19810;SDS011;10065;49.632;8.346;2023-02-11T08:59:11;38.47;;;18.97;;
19810;SDS011;10065;49.632;8.346;2023-02-11T09:01:39;36.30;;;17.77;;
19810;SDS011;10065;49.632;8.346;2023-02-11T09:04:09;36.37;;;18.53;;
19810;SDS011;10065;49.632;8.346;2023-02-11T09:06:37;35.27;;;18.30;;
19810;SDS011;10065;49.632;8.346;2023-02-11T09:09:05;36.60;;;18.20;;
19810;SDS011;10065;49.632;8.346;2023-02-11T09:11:33;33.80;;;19.20;;
19810;SDS011;10065;49.632;8.346;2023-02-11T09:14:02;32.43;;;18.80;;
19810;SDS011;10065;49.632;8.346;2023-02-11T09:16:32;34.10;;;18.83;;
19810;SDS011;10065;49.632;8.346;2023-02-11T09:19:02;35.50;;;17.97;;
19810;SDS011;10065;49.632;8.346;2023-02-11T09:21:32;32.97;;;18.63;;
19810;SDS011;10065;49.632;8.346;2023-02-11T09:23:59;34.43;;;18.73;;
19810;SDS011;10065;49.632;8.346;2023-02-11T09:26:28;31.20;;;17.73;;
19810;SDS011;10065;49.632;8.346;2023-02-11T09:28:57;38.93;;;20.37;;
19810;SDS011;10065;49.632;8.346;2023-02-11T09:31:26;34.97;;;20.20;;
19810;SDS011;10065;49.632;8.346;2023-02-11T09:33:57;33.70;;;19.23;;
19810;SDS011;10065;49.632;8.346;2023-02-11T09:36:27;31.07;;;19.20;;
19810;SDS011;10065;49.632;8.346;2023-02-11T09:38:56;32.33;;;18.73;;
19810;SDS011;10065;49.632;8.346;2023-02-11T09:41:34;31.53;;;19.43;;
19810;SDS011;10065;49.632;8.346;2023-02-11T09:44:17;34.50;;;18.67;;
19810;SDS011;10065;49.632;8.346;2023-02-11T09:46:49;32.10;;;18.00;;
19810;SDS011;10065;49.632;8.346;2023-02-11T09:49:29;33.70;;;19.37;;
19810;SDS011;10065;49.632;8.346;2023-02-11T09:52:02;32.90;;;18.77;;
19810;SDS011;10065;49.632;8.346;2023-02-11T09:54:35;31.93;;;19.40;;
19810;SDS011;10065;49.632;8.346;2023-02-11T09:57:07;32.93;;;18.70;;
19810;SDS011;10065;49.632;8.346;2023-02-11T09:59:53;32.27;;;18.57;;
19810;SDS011;10065;49.632;8.346;2023-02-11T10:02:23;27.90;;;17.60;;
19810;SDS011;10065;49.632;8.346;2023-02-11T10:07:53;31.33;;;18.53;;
19810;SDS011;10065;49.632;8.346;2023-02-11T10:10:31;30.70;;;18.40;;
19810;SDS011;10065;49.632;8.346;2023-02-11T10:13:10;31.67;;;18.60;;
19810;SDS011;10065;49.632;8.346;2023-02-11T10:15:52;34.23;;;19.67;;
19810;SDS011;10065;49.632;8.346;2023-02-11T10:18:31;29.87;;;19.57;;
19810;SDS011;10065;49.632;8.346;2023-02-11T10:21:11;30.03;;;18.27;;
19810;SDS011;10065;49.632;8.346;2023-02-11T10:23:46;31.47;;;19.63;;
19810;SDS011;10065;49.632;8.346;2023-02-11T10:26:18;32.60;;;18.83;;
19810;SDS011;10065;49.632;8.346;2023-02-11T10:28:46;31.10;;;18.97;;
19810;SDS011;10065;49.632;8.346;2023-02-11T10:31:17;30.77;;;18.00;;
19810;SDS011;10065;49.632;8.346;2023-02-11T10:33:51;31.13;;;19.50;;
19810;SDS011;10065;49.632;8.346;2023-02-11T10:36:26;32.20;;;19.70;;
19810;SDS011;10065;49.632;8.346;2023-02-11T10:38:57;30.67;;;18.70;;
19810;SDS011;10065;49.632;8.346;2023-02-11T10:41:26;36.17;;;18.67;;
19810;SDS011;10065;49.632;8.346;2023-02-11T10:44:00;30.33;;;19.13;;
19810;SDS011;10065;49.632;8.346;2023-02-11T10:46:28;32.90;;;18.40;;
19810;SDS011;10065;49.632;8.346;2023-02-11T10:48:59;29.77;;;18.77;;
19810;SDS011;10065;49.632;8.346;2023-02-11T10:51:30;30.93;;;18.97;;
19810;SDS011;10065;49.632;8.346;2023-02-11T10:54:09;28.33;;;18.07;;
19810;SDS011;10065;49.632;8.346;2023-02-11T10:56:47;28.00;;;17.60;;
19810;SDS011;10065;49.632;8.346;2023-02-11T10:59:19;29.23;;;19.40;;
19810;SDS011;10065;49.632;8.346;2023-02-11T11:01:52;29.07;;;18.03;;
19810;SDS011;10065;49.632;8.346;2023-02-11T11:07:19;27.00;;;16.93;;
19810;SDS011;10065;49.632;8.346;2023-02-11T11:09:51;24.50;;;16.30;;
19810;SDS011;10065;49.632;8.346;2023-02-11T11:12:26;28.63;;;17.57;;
19810;SDS011;10065;49.632;8.346;2023-02-11T11:14:57;28.77;;;17.70;;
19810;SDS011;10065;49.632;8.346;2023-02-11T11:17:26;27.63;;;18.03;;
19810;SDS011;10065;49.632;8.346;2023-02-11T11:20:12;30.10;;;18.10;;
19810;SDS011;10065;49.632;8.346;2023-02-11T11:22:43;26.03;;;17.10;;
19810;SDS011;10065;49.632;8.346;2023-02-11T11:25:21;31.33;;;18.63;;
19810;SDS011;10065;49.632;8.346;2023-02-11T11:27:53;27.13;;;18.20;;
19810;SDS011;10065;49.632;8.346;2023-02-11T11:30:24;28.03;;;17.70;;
19810;SDS011;10065;49.632;8.346;2023-02-11T11:32:56;29.53;;;18.00;;
19810;SDS011;10065;49.632;8.346;2023-02-11T11:35:26;28.57;;;17.53;;
19810;SDS011;10065;49.632;8.346;2023-02-11T11:37:57;31.57;;;19.53;;
19810;SDS011;10065;49.632;8.346;2023-02-11T11:40:28;25.60;;;15.70;;
19810;SDS011;10065;49.632;8.346;2023-02-11T11:43:01;28.60;;;18.33;;
19810;SDS011;10065;49.632;8.346;2023-02-11T11:45:31;30.30;;;17.33;;
19810;SDS011;10065;49.632;8.346;2023-02-11T11:47:59;30.37;;;17.67;;
19810;SDS011;10065;49.632;8.346;2023-02-11T11:50:33;30.20;;;17.83;;
19810;SDS011;10065;49.632;8.346;2023-02-11T11:53:06;31.17;;;17.40;;
19810;SDS011;10065;49.632;8.346;2023-02-11T11:55:41;33.43;;;17.30;;
19810;SDS011;10065;49.632;8.346;2023-02-11T11:58:12;28.90;;;16.33;;
19810;SDS011;10065;49.632;8.346;2023-02-11T12:00:45;26.07;;;15.70;;
19810;SDS011;10065;49.632;8.346;2023-02-11T12:06:33;28.27;;;15.43;;
19810;SDS011;10065;49.632;8.346;2023-02-11T12:09:14;28.97;;;16.53;;
19810;SDS011;10065;49.632;8.346;2023-02-11T12:11:55;28.37;;;16.43;;
19810;SDS011;10065;49.632;8.346;2023-02-11T12:14:33;29.83;;;17.07;;
19810;SDS011;10065;49.632;8.346;2023-02-11T12:17:11;26.37;;;15.93;;
19810;SDS011;10065;49.632;8.346;2023-02-11T12:19:57;30.53;;;17.30;;
19810;SDS011;10065;49.632;8.346;2023-02-11T12:22:40;29.27;;;15.57;;
19810;SDS011;10065;49.632;8.346;2023-02-11T12:25:24;29.60;;;16.30;;
19810;SDS011;10065;49.632;8.346;2023-02-11T12:27:55;27.33;;;15.73;;
19810;SDS011;10065;49.632;8.346;2023-02-11T12:30:46;27.07;;;14.77;;
19810;SDS011;10065;49.632;8.346;2023-02-11T12:33:24;26.63;;;15.67;;
19810;SDS011;10065;49.632;8.346;2023-02-11T12:36:06;25.70;;;15.30;;
19810;SDS011;10065;49.632;8.346;2023-02-11T12:39:05;25.40;;;14.13;;
19810;SDS011;10065;49.632;8.346;2023-02-11T12:41:51;30.90;;;15.63;;
19810;SDS011;10065;49.632;8.346;2023-02-11T12:44:56;27.53;;;14.33;;
19810;SDS011;10065;49.632;8.346;2023-02-11T12:47:38;26.17;;;14.03;;
19810;SDS011;10065;49.632;8.346;2023-02-11T12:50:13;22.40;;;13.07;;
19810;SDS011;10065;49.632;8.346;2023-02-11T12:52:54;26.90;;;14.93;;
19810;SDS011;10065;49.632;8.346;2023-02-11T12:55:35;23.93;;;13.60;;
19810;SDS011;10065;49.632;8.346;2023-02-11T12:58:11;29.97;;;14.37;;
19810;SDS011;10065;49.632;8.346;2023-02-11T13:00:44;23.47;;;14.20;;
19810;SDS011;10065;49.632;8.346;2023-02-11T13:03:17;26.60;;;14.80;;
19810;SDS011;10065;49.632;8.346;2023-02-11T13:05:51;28.60;;;15.47;;
19810;SDS011;10065;49.632;8.346;2023-02-11T13:08:23;23.80;;;13.80;;
19810;SDS011;10065;49.632;8.346;2023-02-11T13:10:56;25.87;;;14.40;;
19810;SDS011;10065;49.632;8.346;2023-02-11T13:13:28;27.13;;;14.73;;
19810;SDS011;10065;49.632;8.346;2023-02-11T13:16:01;29.70;;;16.67;;
19810;SDS011;10065;49.632;8.346;2023-02-11T13:18:38;29.07;;;15.73;;
19810;SDS011;10065;49.632;8.346;2023-02-11T13:21:20;29.83;;;15.83;;
19810;SDS011;10065;49.632;8.346;2023-02-11T13:24:00;26.07;;;14.47;;
19810;SDS011;10065;49.632;8.346;2023-02-11T13:26:38;27.07;;;14.63;;
19810;SDS011;10065;49.632;8.346;2023-02-11T13:29:16;27.93;;;15.10;;
19810;SDS011;10065;49.632;8.346;2023-02-11T13:31:53;29.00;;;14.23;;
19810;SDS011;10065;49.632;8.346;2023-02-11T13:34:22;26.00;;;14.80;;
19810;SDS011;10065;49.632;8.346;2023-02-11T13:36:54;28.60;;;15.57;;
19810;SDS011;10065;49.632;8.346;2023-02-11T13:39:23;26.63;;;14.63;;
19810;SDS011;10065;49.632;8.346;2023-02-11T13:41:52;28.30;;;16.03;;
19810;SDS011;10065;49.632;8.346;2023-02-11T13:44:31;27.20;;;14.43;;
19810;SDS011;10065;49.632;8.346;2023-02-11T13:47:01;24.47;;;14.00;;
19810;SDS011;10065;49.632;8.346;2023-02-11T13:49:32;26.53;;;14.17;;
19810;SDS011;10065;49.632;8.346;2023-02-11T13:52:14;27.30;;;14.53;;
19810;SDS011;10065;49.632;8.346;2023-02-11T13:54:46;26.40;;;14.40;;
19810;SDS011;10065;49.632;8.346;2023-02-11T14:03:22;29.23;;;14.87;;
19810;SDS011;10065;49.632;8.346;2023-02-11T14:06:18;29.80;;;15.23;;
19810;SDS011;10065;49.632;8.346;2023-02-11T14:12:20;28.27;;;14.70;;
19810;SDS011;10065;49.632;8.346;2023-02-11T14:14:58;27.33;;;13.27;;
19810;SDS011;10065;49.632;8.346;2023-02-11T14:17:31;27.87;;;14.67;;
19810;SDS011;10065;49.632;8.346;2023-02-11T14:20:02;27.23;;;16.07;;
19810;SDS011;10065;49.632;8.346;2023-02-11T14:22:50;30.90;;;15.80;;
19810;SDS011;10065;49.632;8.346;2023-02-11T14:25:21;32.27;;;16.00;;
19810;SDS011;10065;49.632;8.346;2023-02-11T14:27:51;29.23;;;16.27;;
19810;SDS011;10065;49.632;8.346;2023-02-11T14:30:26;30.50;;;16.40;;
19810;SDS011;10065;49.632;8.346;2023-02-11T14:33:08;26.60;;;15.00;;
19810;SDS011;10065;49.632;8.346;2023-02-11T14:36:09;31.57;;;16.73;;
19810;SDS011;10065;49.632;8.346;2023-02-11T14:38:51;30.30;;;15.30;;
19810;SDS011;10065;49.632;8.346;2023-02-11T14:41:28;30.90;;;16.60;;
19810;SDS011;10065;49.632;8.346;2023-02-11T14:44:00;31.93;;;16.53;;
19810;SDS011;10065;49.632;8.346;2023-02-11T14:46:32;30.70;;;15.73;;
19810;SDS011;10065;49.632;8.346;2023-02-11T14:49:01;27.43;;;15.57;;
19810;SDS011;10065;49.632;8.346;2023-02-11T14:51:34;28.30;;;15.60;;
19810;SDS011;10065;49.632;8.346;2023-02-11T14:54:09;29.77;;;16.23;;
19810;SDS011;10065;49.632;8.346;2023-02-11T14:56:42;29.33;;;16.27;;
19810;SDS011;10065;49.632;8.346;2023-02-11T14:59:14;28.43;;;15.87;;
19810;SDS011;10065;49.632;8.346;2023-02-11T15:01:45;30.80;;;15.20;;
19810;SDS011;10065;49.632;8.346;2023-02-11T15:04:22;29.43;;;16.17;;
19810;SDS011;10065;49.632;8.346;2023-02-11T15:06:52;27.73;;;15.13;;
19810;SDS011;10065;49.632;8.346;2023-02-11T15:09:22;31.10;;;16.90;;
19810;SDS011;10065;49.632;8.346;2023-02-11T15:11:56;30.57;;;16.43;;
19810;SDS011;10065;49.632;8.346;2023-02-11T15:14:25;31.73;;;16.20;;
19810;SDS011;10065;49.632;8.346;2023-02-11T15:16:55;28.23;;;15.93;;